Terminal Aerodrome Forecast
Issued by NWS

Home | Current Version | Previous Version | Graphics & Text | Print | Product List | Glossary On
Versions: 1 2 3 4 5 6 7 8 9 10 11 12 13 14
000
FTUS43 KMPX 182300
TAFRWF
TAF
KRWF 182320Z 1900/1924 VRB05KT P6SM SCT200
     FM190600 18009KT P6SM SCT150
     FM191300 21012G17KT P6SM BKN150
     FM191900 26011KT P6SM FEW150=

USA.gov is the U.S. government's official web portal to all federal, state and local government web resources and services.